Averill, Minnesota
Current Conditions -  °F | °C
As of 1:52 PM on Monday 24 Nov 2014 (Local Time) from KJKJ Reporting Station
Light Snow Light Snow  
Wind Chill: -3°   Ceiling: 1200
Heat Index: 14°   Visibility: 10mi
Dew Point: 10°   Wind: 20mph
Humidity: 86%   Direction: 350°N
Pressure: 29.79"   Gusts: NA
Location:  46.8905°N, 96.5417°W
Report Text: KJKJ 241952Z AUTO 35017KT 10SM -SN OVC012 M10/M12 A2979 RMK AO2
Loading
Personal Weather Stations






























Interactive Weather Map New forecast layout! Learn more

10-Day Weather Forecast

Advertisements
Track Severe Weather on mobile